Pagrindinis puslapis
METAR-TAF:

METAR-TAF

Oro uostai :

Phitsanulok, Tailandas

platuma: 16-46-23N, ilguma: 100-16-56E, Aukštis: 47 m

Dabartinis oras

Ataskaita buvo paskelbta 42 minutes, ne 10:00 UTC
Vėjas 4 kt iš Vakarų
Temperatūra 31°C
Drėgmė 52%
Slėgis 1010 hPa
Matomumas 10 km arba daugiau
nėra debesų žemiau 1500 m ir nėra kamuolinių lietaus debesų

METAR: VTPP 191000Z 28004KT CAVOK 31/20 Q1010 NOSIG

Laikas: 17:42 (10:42 UTC)

Prognozė

Ataskaita buvo paskelbta 5 valandos ir 42 minutes, ne 05:00 UTC
Prognozė galioja nuo 19 metu 06 UTC su 20 metu 06 UTC
Vėjas 5 kt iš Rytų/Šiaurės Rytų
Matomumas 10 km arba daugiau
Mažai debesys ne aukštis 4000 ft
Tapsmas
nuo 19 metu 21 UTC su 19 metu 23 UTC
Matomumas: 4000 m
rūkana
Tapsmas
nuo 20 metu 01 UTC su 20 metu 03 UTC
Matomumas 10 km arba daugiau

TAF: VTPP 190500Z 1906/2006 07005KT 9999 FEW040 BECMG 1921/1923 4000 BR BECMG 2001/2003 9999 NSW

Orai ataskaitas ir orų prognozės (METAR, TAF).

turimą stotys yra geltonos ir raudonos taškus žemėlapyje.

Perkelti pele per norėdami pamatyti stoties vardą.

Tada spustelėkite, norėdami matyti oro stebėjimo ir prognozės.

Norėdami pakeisti žemėlapį: spustelėkite ant žalios mygtukų su juodo kryžiaus žemyn,; žalią mygtuką su brūkšneliu, jei norite nutolinti; arba žalių rodyklių gretimoms žemėlapius.


METAR-TAF: